sensor_id;sensor_type;location;lat;lon;timestamp;P1;durP1;ratioP1;P2;durP2;ratioP2
42682;SDS011;28293;50.930;3.464;2022-07-01T00:01:58;12.50;;;7.90;;
42682;SDS011;28293;50.930;3.464;2022-07-01T00:04:23;13.55;;;8.40;;
42682;SDS011;28293;50.930;3.464;2022-07-01T00:06:55;11.63;;;7.68;;
42682;SDS011;28293;50.930;3.464;2022-07-01T00:09:22;14.98;;;8.20;;
42682;SDS011;28293;50.930;3.464;2022-07-01T00:11:48;14.80;;;8.27;;
42682;SDS011;28293;50.930;3.464;2022-07-01T00:14:15;12.95;;;8.10;;
42682;SDS011;28293;50.930;3.464;2022-07-01T00:16:41;14.23;;;8.32;;
42682;SDS011;28293;50.930;3.464;2022-07-01T00:19:07;11.38;;;8.15;;
42682;SDS011;28293;50.930;3.464;2022-07-01T00:21:33;15.23;;;8.00;;
42682;SDS011;28293;50.930;3.464;2022-07-01T00:23:59;11.85;;;7.60;;
42682;SDS011;28293;50.930;3.464;2022-07-01T00:26:25;13.45;;;8.70;;
42682;SDS011;28293;50.930;3.464;2022-07-01T00:28:51;12.13;;;8.90;;
42682;SDS011;28293;50.930;3.464;2022-07-01T00:31:17;12.70;;;8.98;;
42682;SDS011;28293;50.930;3.464;2022-07-01T00:33:42;14.25;;;8.63;;
42682;SDS011;28293;50.930;3.464;2022-07-01T00:36:08;13.38;;;9.05;;
42682;SDS011;28293;50.930;3.464;2022-07-01T00:38:34;15.20;;;8.38;;
42682;SDS011;28293;50.930;3.464;2022-07-01T00:41:00;13.00;;;9.32;;
42682;SDS011;28293;50.930;3.464;2022-07-01T00:43:26;11.98;;;8.73;;
42682;SDS011;28293;50.930;3.464;2022-07-01T00:45:52;10.73;;;8.38;;
42682;SDS011;28293;50.930;3.464;2022-07-01T00:48:21;13.77;;;8.45;;
42682;SDS011;28293;50.930;3.464;2022-07-01T00:50:47;10.88;;;8.82;;
42682;SDS011;28293;50.930;3.464;2022-07-01T00:53:13;14.93;;;9.82;;
42682;SDS011;28293;50.930;3.464;2022-07-01T00:55:40;14.35;;;9.93;;
42682;SDS011;28293;50.930;3.464;2022-07-01T00:58:07;14.75;;;9.48;;
42682;SDS011;28293;50.930;3.464;2022-07-01T01:00:34;13.48;;;9.38;;
42682;SDS011;28293;50.930;3.464;2022-07-01T01:03:06;13.55;;;9.15;;
42682;SDS011;28293;50.930;3.464;2022-07-01T01:05:35;18.10;;;9.45;;
42682;SDS011;28293;50.930;3.464;2022-07-01T01:08:02;14.90;;;10.82;;
42682;SDS011;28293;50.930;3.464;2022-07-01T01:10:29;13.77;;;9.68;;
42682;SDS011;28293;50.930;3.464;2022-07-01T01:12:56;13.75;;;9.65;;
42682;SDS011;28293;50.930;3.464;2022-07-01T01:15:22;11.65;;;9.25;;
42682;SDS011;28293;50.930;3.464;2022-07-01T01:17:49;14.50;;;9.40;;
42682;SDS011;28293;50.930;3.464;2022-07-01T01:20:16;13.27;;;9.70;;
42682;SDS011;28293;50.930;3.464;2022-07-01T01:22:43;17.23;;;10.73;;
42682;SDS011;28293;50.930;3.464;2022-07-01T01:25:09;14.35;;;10.23;;
42682;SDS011;28293;50.930;3.464;2022-07-01T01:27:35;15.85;;;10.02;;
42682;SDS011;28293;50.930;3.464;2022-07-01T01:30:05;13.73;;;9.52;;
42682;SDS011;28293;50.930;3.464;2022-07-01T01:32:33;12.48;;;9.48;;
42682;SDS011;28293;50.930;3.464;2022-07-01T01:35:00;15.77;;;9.23;;
42682;SDS011;28293;50.930;3.464;2022-07-01T01:37:26;15.48;;;10.73;;
42682;SDS011;28293;50.930;3.464;2022-07-01T01:39:53;18.77;;;10.73;;
42682;SDS011;28293;50.930;3.464;2022-07-01T01:42:19;19.42;;;9.93;;
42682;SDS011;28293;50.930;3.464;2022-07-01T01:44:46;13.45;;;9.98;;
42682;SDS011;28293;50.930;3.464;2022-07-01T01:47:12;15.88;;;9.68;;
42682;SDS011;28293;50.930;3.464;2022-07-01T01:49:38;14.63;;;9.75;;
42682;SDS011;28293;50.930;3.464;2022-07-01T01:52:04;14.30;;;9.77;;
42682;SDS011;28293;50.930;3.464;2022-07-01T01:54:31;14.77;;;9.98;;
42682;SDS011;28293;50.930;3.464;2022-07-01T01:56:58;13.95;;;8.68;;
42682;SDS011;28293;50.930;3.464;2022-07-01T01:59:24;14.85;;;9.55;;
42682;SDS011;28293;50.930;3.464;2022-07-01T02:01:49;17.35;;;9.43;;
42682;SDS011;28293;50.930;3.464;2022-07-01T02:04:15;12.77;;;8.25;;
42682;SDS011;28293;50.930;3.464;2022-07-01T02:06:41;14.77;;;8.48;;
42682;SDS011;28293;50.930;3.464;2022-07-01T02:09:07;13.52;;;9.00;;
42682;SDS011;28293;50.930;3.464;2022-07-01T02:11:34;15.85;;;8.95;;
42682;SDS011;28293;50.930;3.464;2022-07-01T02:14:00;13.90;;;7.72;;
42682;SDS011;28293;50.930;3.464;2022-07-01T02:16:25;13.77;;;8.43;;
42682;SDS011;28293;50.930;3.464;2022-07-01T02:18:52;12.38;;;8.02;;
42682;SDS011;28293;50.930;3.464;2022-07-01T02:21:17;14.48;;;7.32;;
42682;SDS011;28293;50.930;3.464;2022-07-01T02:23:43;15.93;;;8.25;;
42682;SDS011;28293;50.930;3.464;2022-07-01T02:26:09;15.45;;;7.30;;
42682;SDS011;28293;50.930;3.464;2022-07-01T02:28:34;14.05;;;7.35;;
42682;SDS011;28293;50.930;3.464;2022-07-01T02:31:00;16.10;;;6.97;;
42682;SDS011;28293;50.930;3.464;2022-07-01T02:33:27;14.48;;;7.80;;
42682;SDS011;28293;50.930;3.464;2022-07-01T02:35:53;11.50;;;6.90;;
42682;SDS011;28293;50.930;3.464;2022-07-01T02:38:19;13.80;;;6.75;;
42682;SDS011;28293;50.930;3.464;2022-07-01T02:40:44;12.88;;;6.93;;
42682;SDS011;28293;50.930;3.464;2022-07-01T02:43:10;13.07;;;7.05;;
42682;SDS011;28293;50.930;3.464;2022-07-01T02:45:36;10.40;;;7.18;;
42682;SDS011;28293;50.930;3.464;2022-07-01T02:48:02;15.65;;;6.53;;
42682;SDS011;28293;50.930;3.464;2022-07-01T02:50:27;12.05;;;6.50;;
42682;SDS011;28293;50.930;3.464;2022-07-01T02:52:53;12.95;;;6.72;;
42682;SDS011;28293;50.930;3.464;2022-07-01T02:55:20;9.88;;;5.75;;
42682;SDS011;28293;50.930;3.464;2022-07-01T02:57:45;12.65;;;6.82;;
42682;SDS011;28293;50.930;3.464;2022-07-01T03:00:15;13.80;;;6.57;;
42682;SDS011;28293;50.930;3.464;2022-07-01T03:02:40;11.95;;;6.43;;
42682;SDS011;28293;50.930;3.464;2022-07-01T03:05:07;11.68;;;6.40;;
42682;SDS011;28293;50.930;3.464;2022-07-01T03:07:34;11.63;;;5.75;;
42682;SDS011;28293;50.930;3.464;2022-07-01T03:10:06;9.98;;;6.03;;
42682;SDS011;28293;50.930;3.464;2022-07-01T03:12:33;11.60;;;5.97;;
42682;SDS011;28293;50.930;3.464;2022-07-01T03:15:04;12.23;;;6.22;;
42682;SDS011;28293;50.930;3.464;2022-07-01T03:17:33;10.55;;;5.95;;
42682;SDS011;28293;50.930;3.464;2022-07-01T03:20:00;8.98;;;5.22;;
42682;SDS011;28293;50.930;3.464;2022-07-01T03:22:27;13.43;;;6.32;;
42682;SDS011;28293;50.930;3.464;2022-07-01T03:24:54;10.90;;;6.00;;
42682;SDS011;28293;50.930;3.464;2022-07-01T03:27:20;12.23;;;6.00;;
42682;SDS011;28293;50.930;3.464;2022-07-01T03:29:46;14.32;;;7.95;;
42682;SDS011;28293;50.930;3.464;2022-07-01T03:32:12;14.95;;;10.23;;
42682;SDS011;28293;50.930;3.464;2022-07-01T03:34:38;17.88;;;13.27;;
42682;SDS011;28293;50.930;3.464;2022-07-01T03:37:05;17.63;;;14.60;;
42682;SDS011;28293;50.930;3.464;2022-07-01T03:39:32;20.00;;;13.98;;
42682;SDS011;28293;50.930;3.464;2022-07-01T03:41:59;19.73;;;13.35;;
42682;SDS011;28293;50.930;3.464;2022-07-01T03:44:24;18.30;;;11.57;;
42682;SDS011;28293;50.930;3.464;2022-07-01T03:46:50;15.65;;;11.25;;
42682;SDS011;28293;50.930;3.464;2022-07-01T03:49:16;18.90;;;11.75;;
42682;SDS011;28293;50.930;3.464;2022-07-01T03:51:41;18.50;;;10.52;;
42682;SDS011;28293;50.930;3.464;2022-07-01T03:54:07;14.82;;;10.63;;
42682;SDS011;28293;50.930;3.464;2022-07-01T03:56:51;15.65;;;9.38;;
42682;SDS011;28293;50.930;3.464;2022-07-01T03:59:17;17.08;;;10.10;;
42682;SDS011;28293;50.930;3.464;2022-07-01T04:01:43;15.27;;;10.02;;
42682;SDS011;28293;50.930;3.464;2022-07-01T04:04:08;13.82;;;8.40;;
42682;SDS011;28293;50.930;3.464;2022-07-01T04:06:34;13.63;;;8.20;;
42682;SDS011;28293;50.930;3.464;2022-07-01T04:09:01;11.43;;;9.27;;
42682;SDS011;28293;50.930;3.464;2022-07-01T04:11:27;15.25;;;8.23;;
42682;SDS011;28293;50.930;3.464;2022-07-01T04:13:52;13.77;;;8.40;;
42682;SDS011;28293;50.930;3.464;2022-07-01T04:16:19;14.25;;;8.45;;
42682;SDS011;28293;50.930;3.464;2022-07-01T04:18:45;13.63;;;7.40;;
42682;SDS011;28293;50.930;3.464;2022-07-01T04:21:11;13.15;;;7.50;;
42682;SDS011;28293;50.930;3.464;2022-07-01T04:23:55;14.88;;;7.82;;
42682;SDS011;28293;50.930;3.464;2022-07-01T04:26:24;16.10;;;7.00;;
42682;SDS011;28293;50.930;3.464;2022-07-01T04:28:50;14.05;;;8.23;;
42682;SDS011;28293;50.930;3.464;2022-07-01T04:31:17;14.32;;;8.40;;
42682;SDS011;28293;50.930;3.464;2022-07-01T04:33:43;13.13;;;7.55;;
42682;SDS011;28293;50.930;3.464;2022-07-01T04:36:10;10.85;;;7.53;;
42682;SDS011;28293;50.930;3.464;2022-07-01T04:38:35;13.65;;;7.43;;
42682;SDS011;28293;50.930;3.464;2022-07-01T04:41:01;17.23;;;7.70;;
42682;SDS011;28293;50.930;3.464;2022-07-01T04:43:45;13.45;;;7.43;;
42682;SDS011;28293;50.930;3.464;2022-07-01T04:46:11;12.35;;;8.10;;
42682;SDS011;28293;50.930;3.464;2022-07-01T04:48:36;16.42;;;7.80;;
42682;SDS011;28293;50.930;3.464;2022-07-01T04:51:02;16.55;;;7.82;;
42682;SDS011;28293;50.930;3.464;2022-07-01T04:53:28;16.63;;;8.50;;
42682;SDS011;28293;50.930;3.464;2022-07-01T04:55:53;17.30;;;8.45;;
42682;SDS011;28293;50.930;3.464;2022-07-01T04:58:19;13.73;;;7.63;;
42682;SDS011;28293;50.930;3.464;2022-07-01T05:00:45;16.70;;;7.72;;
42682;SDS011;28293;50.930;3.464;2022-07-01T05:03:13;16.38;;;7.80;;
42682;SDS011;28293;50.930;3.464;2022-07-01T05:05:39;14.80;;;8.25;;
42682;SDS011;28293;50.930;3.464;2022-07-01T05:08:05;16.85;;;8.00;;
42682;SDS011;28293;50.930;3.464;2022-07-01T05:10:30;15.85;;;8.27;;
42682;SDS011;28293;50.930;3.464;2022-07-01T05:12:56;13.07;;;7.07;;
42682;SDS011;28293;50.930;3.464;2022-07-01T05:15:22;10.02;;;5.53;;
42682;SDS011;28293;50.930;3.464;2022-07-01T05:17:47;13.30;;;5.22;;
42682;SDS011;28293;50.930;3.464;2022-07-01T05:20:31;10.18;;;5.00;;
42682;SDS011;28293;50.930;3.464;2022-07-01T05:23:16;9.75;;;4.53;;
42682;SDS011;28293;50.930;3.464;2022-07-01T05:25:42;8.63;;;3.80;;
42682;SDS011;28293;50.930;3.464;2022-07-01T05:28:07;11.52;;;4.43;;
42682;SDS011;28293;50.930;3.464;2022-07-01T05:30:33;7.90;;;3.55;;
42682;SDS011;28293;50.930;3.464;2022-07-01T05:32:59;7.75;;;3.40;;
42682;SDS011;28293;50.930;3.464;2022-07-01T05:35:24;9.43;;;3.65;;
42682;SDS011;28293;50.930;3.464;2022-07-01T05:37:50;13.43;;;3.90;;
42682;SDS011;28293;50.930;3.464;2022-07-01T05:40:16;12.32;;;4.28;;
42682;SDS011;28293;50.930;3.464;2022-07-01T05:42:42;10.07;;;3.30;;
42682;SDS011;28293;50.930;3.464;2022-07-01T05:45:08;10.05;;;3.22;;
42682;SDS011;28293;50.930;3.464;2022-07-01T05:47:33;8.10;;;3.10;;
42682;SDS011;28293;50.930;3.464;2022-07-01T05:49:59;7.25;;;3.10;;
42682;SDS011;28293;50.930;3.464;2022-07-01T05:52:25;9.48;;;3.85;;
42682;SDS011;28293;50.930;3.464;2022-07-01T05:54:51;9.88;;;3.40;;
42682;SDS011;28293;50.930;3.464;2022-07-01T05:57:16;10.82;;;3.63;;
42682;SDS011;28293;50.930;3.464;2022-07-01T05:59:42;11.15;;;3.90;;
42682;SDS011;28293;50.930;3.464;2022-07-01T06:02:08;11.43;;;3.72;;
42682;SDS011;28293;50.930;3.464;2022-07-01T06:04:33;10.50;;;3.50;;
42682;SDS011;28293;50.930;3.464;2022-07-01T06:06:59;10.25;;;3.47;;
42682;SDS011;28293;50.930;3.464;2022-07-01T06:09:25;10.52;;;2.67;;
42682;SDS011;28293;50.930;3.464;2022-07-01T06:11:50;9.95;;;2.67;;
42682;SDS011;28293;50.930;3.464;2022-07-01T06:14:16;9.57;;;2.88;;
42682;SDS011;28293;50.930;3.464;2022-07-01T06:16:42;10.10;;;3.00;;
42682;SDS011;28293;50.930;3.464;2022-07-01T06:19:08;9.32;;;2.90;;
42682;SDS011;28293;50.930;3.464;2022-07-01T06:21:33;14.00;;;3.42;;
42682;SDS011;28293;50.930;3.464;2022-07-01T06:23:59;11.05;;;3.10;;
42682;SDS011;28293;50.930;3.464;2022-07-01T06:26:25;9.75;;;2.78;;
42682;SDS011;28293;50.930;3.464;2022-07-01T06:28:50;8.15;;;2.40;;
42682;SDS011;28293;50.930;3.464;2022-07-01T06:31:16;13.07;;;3.03;;
42682;SDS011;28293;50.930;3.464;2022-07-01T06:33:42;10.77;;;2.80;;
42682;SDS011;28293;50.930;3.464;2022-07-01T06:36:08;10.85;;;2.50;;
42682;SDS011;28293;50.930;3.464;2022-07-01T06:38:33;9.23;;;2.60;;
42682;SDS011;28293;50.930;3.464;2022-07-01T06:40:59;7.65;;;2.90;;
42682;SDS011;28293;50.930;3.464;2022-07-01T06:43:43;10.05;;;2.65;;
42682;SDS011;28293;50.930;3.464;2022-07-01T06:46:09;9.65;;;2.72;;
42682;SDS011;28293;50.930;3.464;2022-07-01T06:48:35;9.68;;;2.58;;
42682;SDS011;28293;50.930;3.464;2022-07-01T06:51:01;6.50;;;2.10;;
42682;SDS011;28293;50.930;3.464;2022-07-01T06:53:27;10.27;;;2.38;;
42682;SDS011;28293;50.930;3.464;2022-07-01T06:55:53;11.57;;;2.47;;
42682;SDS011;28293;50.930;3.464;2022-07-01T06:58:19;6.38;;;1.88;;
42682;SDS011;28293;50.930;3.464;2022-07-01T07:00:45;7.15;;;1.90;;
42682;SDS011;28293;50.930;3.464;2022-07-01T07:03:10;11.00;;;2.30;;
42682;SDS011;28293;50.930;3.464;2022-07-01T07:05:36;9.00;;;2.63;;
42682;SDS011;28293;50.930;3.464;2022-07-01T07:08:02;8.98;;;2.22;;
42682;SDS011;28293;50.930;3.464;2022-07-01T07:10:27;10.75;;;2.30;;
42682;SDS011;28293;50.930;3.464;2022-07-01T07:12:53;9.95;;;2.25;;
42682;SDS011;28293;50.930;3.464;2022-07-01T07:15:19;10.10;;;2.05;;
42682;SDS011;28293;50.930;3.464;2022-07-01T07:17:44;10.05;;;2.42;;
42682;SDS011;28293;50.930;3.464;2022-07-01T07:20:10;8.32;;;2.00;;
42682;SDS011;28293;50.930;3.464;2022-07-01T07:22:36;7.53;;;1.85;;
42682;SDS011;28293;50.930;3.464;2022-07-01T07:25:01;8.02;;;1.95;;
42682;SDS011;28293;50.930;3.464;2022-07-01T07:27:27;6.18;;;1.88;;
42682;SDS011;28293;50.930;3.464;2022-07-01T07:29:53;7.90;;;1.80;;
42682;SDS011;28293;50.930;3.464;2022-07-01T07:32:19;5.22;;;1.58;;
42682;SDS011;28293;50.930;3.464;2022-07-01T07:34:45;5.82;;;1.60;;
42682;SDS011;28293;50.930;3.464;2022-07-01T07:37:10;7.90;;;1.98;;
42682;SDS011;28293;50.930;3.464;2022-07-01T07:39:36;7.35;;;1.80;;
42682;SDS011;28293;50.930;3.464;2022-07-01T07:42:02;8.23;;;1.50;;
42682;SDS011;28293;50.930;3.464;2022-07-01T07:44:29;6.53;;;1.45;;
42682;SDS011;28293;50.930;3.464;2022-07-01T07:46:55;6.78;;;1.38;;
42682;SDS011;28293;50.930;3.464;2022-07-01T07:49:22;5.28;;;1.67;;
42682;SDS011;28293;50.930;3.464;2022-07-01T07:51:48;9.07;;;1.35;;
42682;SDS011;28293;50.930;3.464;2022-07-01T07:54:14;6.25;;;1.65;;
42682;SDS011;28293;50.930;3.464;2022-07-01T07:56:40;9.02;;;1.85;;
42682;SDS011;28293;50.930;3.464;2022-07-01T07:59:05;5.78;;;1.42;;
42682;SDS011;28293;50.930;3.464;2022-07-01T08:01:31;8.05;;;1.38;;
42682;SDS011;28293;50.930;3.464;2022-07-01T08:03:57;6.78;;;1.52;;
42682;SDS011;28293;50.930;3.464;2022-07-01T08:06:23;5.95;;;1.50;;
42682;SDS011;28293;50.930;3.464;2022-07-01T08:08:49;7.65;;;1.85;;
42682;SDS011;28293;50.930;3.464;2022-07-01T08:11:14;6.78;;;1.40;;
42682;SDS011;28293;50.930;3.464;2022-07-01T08:13:40;9.15;;;1.40;;
42682;SDS011;28293;50.930;3.464;2022-07-01T08:16:06;8.18;;;1.70;;
42682;SDS011;28293;50.930;3.464;2022-07-01T08:18:32;8.65;;;2.03;;
42682;SDS011;28293;50.930;3.464;2022-07-01T08:20:58;5.40;;;1.65;;
42682;SDS011;28293;50.930;3.464;2022-07-01T08:23:23;7.45;;;1.88;;
42682;SDS011;28293;50.930;3.464;2022-07-01T08:25:49;11.80;;;2.40;;
42682;SDS011;28293;50.930;3.464;2022-07-01T08:28:16;9.82;;;1.77;;
42682;SDS011;28293;50.930;3.464;2022-07-01T08:30:42;7.05;;;1.50;;
42682;SDS011;28293;50.930;3.464;2022-07-01T08:33:08;6.05;;;1.20;;
42682;SDS011;28293;50.930;3.464;2022-07-01T08:35:34;4.50;;;1.83;;
42682;SDS011;28293;50.930;3.464;2022-07-01T08:38:00;6.65;;;1.60;;
42682;SDS011;28293;50.930;3.464;2022-07-01T08:40:29;7.90;;;1.90;;
42682;SDS011;28293;50.930;3.464;2022-07-01T08:43:05;5.13;;;1.35;;
42682;SDS011;28293;50.930;3.464;2022-07-01T08:45:32;4.82;;;1.50;;
42682;SDS011;28293;50.930;3.464;2022-07-01T08:48:04;4.53;;;1.10;;
42682;SDS011;28293;50.930;3.464;2022-07-01T08:50:35;5.18;;;1.27;;
42682;SDS011;28293;50.930;3.464;2022-07-01T08:53:02;6.75;;;1.50;;
42682;SDS011;28293;50.930;3.464;2022-07-01T08:55:29;7.18;;;1.30;;
42682;SDS011;28293;50.930;3.464;2022-07-01T08:57:55;7.20;;;1.58;;
42682;SDS011;28293;50.930;3.464;2022-07-01T09:00:28;7.25;;;1.90;;
42682;SDS011;28293;50.930;3.464;2022-07-01T09:02:56;8.18;;;1.60;;
42682;SDS011;28293;50.930;3.464;2022-07-01T09:05:26;8.30;;;1.50;;
42682;SDS011;28293;50.930;3.464;2022-07-01T09:07:58;6.13;;;1.50;;
42682;SDS011;28293;50.930;3.464;2022-07-01T09:10:26;8.25;;;1.80;;
42682;SDS011;28293;50.930;3.464;2022-07-01T09:12:52;5.05;;;1.83;;
42682;SDS011;28293;50.930;3.464;2022-07-01T09:15:22;7.22;;;1.70;;
42682;SDS011;28293;50.930;3.464;2022-07-01T09:17:51;6.32;;;1.48;;
42682;SDS011;28293;50.930;3.464;2022-07-01T09:20:24;9.40;;;2.03;;
42682;SDS011;28293;50.930;3.464;2022-07-01T09:22:59;5.82;;;1.35;;
42682;SDS011;28293;50.930;3.464;2022-07-01T09:25:28;6.25;;;1.80;;
42682;SDS011;28293;50.930;3.464;2022-07-01T09:28:05;9.50;;;1.80;;
42682;SDS011;28293;50.930;3.464;2022-07-01T09:30:33;5.72;;;1.52;;
42682;SDS011;28293;50.930;3.464;2022-07-01T09:33:12;5.55;;;1.42;;
42682;SDS011;28293;50.930;3.464;2022-07-01T09:35:49;7.78;;;1.73;;
42682;SDS011;28293;50.930;3.464;2022-07-01T09:38:19;7.05;;;2.08;;
42682;SDS011;28293;50.930;3.464;2022-07-01T09:40:47;9.13;;;1.80;;
42682;SDS011;28293;50.930;3.464;2022-07-01T09:43:19;4.60;;;1.58;;
42682;SDS011;28293;50.930;3.464;2022-07-01T09:46:09;6.60;;;1.73;;
42682;SDS011;28293;50.930;3.464;2022-07-01T09:51:01;5.63;;;1.40;;
42682;SDS011;28293;50.930;3.464;2022-07-01T09:53:31;5.65;;;1.60;;
42682;SDS011;28293;50.930;3.464;2022-07-01T09:55:59;6.35;;;1.60;;
42682;SDS011;28293;50.930;3.464;2022-07-01T09:58:25;6.03;;;1.75;;
42682;SDS011;28293;50.930;3.464;2022-07-01T10:00:51;7.90;;;1.88;;
42682;SDS011;28293;50.930;3.464;2022-07-01T10:03:19;6.35;;;2.25;;
42682;SDS011;28293;50.930;3.464;2022-07-01T10:05:47;7.47;;;1.92;;
42682;SDS011;28293;50.930;3.464;2022-07-01T10:13:52;6.05;;;1.92;;
42682;SDS011;28293;50.930;3.464;2022-07-01T10:16:18;6.60;;;1.65;;
42682;SDS011;28293;50.930;3.464;2022-07-01T10:18:45;6.78;;;1.77;;
42682;SDS011;28293;50.930;3.464;2022-07-01T10:21:25;3.53;;;1.50;;
42682;SDS011;28293;50.930;3.464;2022-07-01T10:24:15;6.22;;;1.50;;
42682;SDS011;28293;50.930;3.464;2022-07-01T10:26:41;8.63;;;1.60;;
42682;SDS011;28293;50.930;3.464;2022-07-01T10:31:53;4.18;;;1.38;;
42682;SDS011;28293;50.930;3.464;2022-07-01T10:34:24;7.50;;;1.60;;
42682;SDS011;28293;50.930;3.464;2022-07-01T10:40:07;5.72;;;1.70;;
42682;SDS011;28293;50.930;3.464;2022-07-01T10:42:28;5.03;;;1.50;;
42682;SDS011;28293;50.930;3.464;2022-07-01T10:44:59;5.72;;;1.85;;
42682;SDS011;28293;50.930;3.464;2022-07-01T10:47:27;4.55;;;1.30;;
42682;SDS011;28293;50.930;3.464;2022-07-01T10:49:56;7.35;;;1.52;;
42682;SDS011;28293;50.930;3.464;2022-07-01T10:52:23;6.05;;;1.52;;
42682;SDS011;28293;50.930;3.464;2022-07-01T10:54:53;5.25;;;1.55;;
42682;SDS011;28293;50.930;3.464;2022-07-01T10:57:31;6.32;;;1.48;;
42682;SDS011;28293;50.930;3.464;2022-07-01T11:02:29;3.42;;;1.70;;
42682;SDS011;28293;50.930;3.464;2022-07-01T11:04:57;4.90;;;1.48;;
42682;SDS011;28293;50.930;3.464;2022-07-01T11:07:28;8.18;;;1.83;;
42682;SDS011;28293;50.930;3.464;2022-07-01T11:09:57;7.65;;;1.35;;
42682;SDS011;28293;50.930;3.464;2022-07-01T11:12:24;6.88;;;1.20;;
42682;SDS011;28293;50.930;3.464;2022-07-01T11:14:54;3.88;;;1.17;;
42682;SDS011;28293;50.930;3.464;2022-07-01T11:17:22;6.78;;;1.92;;
42682;SDS011;28293;50.930;3.464;2022-07-01T11:19:50;7.45;;;1.42;;
42682;SDS011;28293;50.930;3.464;2022-07-01T11:24:52;5.75;;;1.25;;
42682;SDS011;28293;50.930;3.464;2022-07-01T11:27:19;7.72;;;1.88;;
42682;SDS011;28293;50.930;3.464;2022-07-01T11:29:50;8.98;;;1.83;;
42682;SDS011;28293;50.930;3.464;2022-07-01T11:32:29;8.63;;;1.90;;
42682;SDS011;28293;50.930;3.464;2022-07-01T11:34:57;9.88;;;1.73;;
42682;SDS011;28293;50.930;3.464;2022-07-01T11:37:27;7.03;;;2.28;;
42682;SDS011;28293;50.930;3.464;2022-07-01T11:40:13;7.53;;;1.88;;
42682;SDS011;28293;50.930;3.464;2022-07-01T11:42:40;7.97;;;1.98;;
42682;SDS011;28293;50.930;3.464;2022-07-01T11:45:06;5.45;;;1.65;;
42682;SDS011;28293;50.930;3.464;2022-07-01T11:47:33;11.88;;;4.70;;
42682;SDS011;28293;50.930;3.464;2022-07-01T11:49:59;3.88;;;1.58;;
42682;SDS011;28293;50.930;3.464;2022-07-01T11:52:25;4.85;;;1.70;;
42682;SDS011;28293;50.930;3.464;2022-07-01T11:54:53;6.38;;;2.20;;
42682;SDS011;28293;50.930;3.464;2022-07-01T11:57:23;14.77;;;5.60;;
42682;SDS011;28293;50.930;3.464;2022-07-01T11:59:52;10.27;;;2.75;;
42682;SDS011;28293;50.930;3.464;2022-07-01T12:02:20;8.15;;;2.28;;
42682;SDS011;28293;50.930;3.464;2022-07-01T12:04:50;8.15;;;1.85;;
42682;SDS011;28293;50.930;3.464;2022-07-01T12:07:19;7.93;;;2.10;;
42682;SDS011;28293;50.930;3.464;2022-07-01T12:09:49;7.82;;;2.20;;
42682;SDS011;28293;50.930;3.464;2022-07-01T12:12:18;5.25;;;1.70;;
42682;SDS011;28293;50.930;3.464;2022-07-01T12:14:53;4.32;;;1.73;;
42682;SDS011;28293;50.930;3.464;2022-07-01T12:17:20;6.82;;;2.03;;
42682;SDS011;28293;50.930;3.464;2022-07-01T12:19:46;7.43;;;2.22;;
42682;SDS011;28293;50.930;3.464;2022-07-01T12:22:19;9.60;;;2.03;;
42682;SDS011;28293;50.930;3.464;2022-07-01T12:24:51;7.10;;;1.90;;
42682;SDS011;28293;50.930;3.464;2022-07-01T12:27:21;5.75;;;1.60;;
42682;SDS011;28293;50.930;3.464;2022-07-01T12:32:49;10.55;;;4.07;;
42682;SDS011;28293;50.930;3.464;2022-07-01T12:35:09;5.03;;;1.83;;
42682;SDS011;28293;50.930;3.464;2022-07-01T12:37:55;7.07;;;1.90;;
42682;SDS011;28293;50.930;3.464;2022-07-01T12:40:22;6.65;;;1.63;;
42682;SDS011;28293;50.930;3.464;2022-07-01T12:42:50;6.20;;;2.00;;
42682;SDS011;28293;50.930;3.464;2022-07-01T12:45:16;8.95;;;2.33;;
42682;SDS011;28293;50.930;3.464;2022-07-01T12:47:49;7.10;;;2.13;;
42682;SDS011;28293;50.930;3.464;2022-07-01T12:53:03;9.30;;;1.88;;
42682;SDS011;28293;50.930;3.464;2022-07-01T12:55:34;5.05;;;1.65;;
42682;SDS011;28293;50.930;3.464;2022-07-01T12:58:04;6.30;;;1.60;;
42682;SDS011;28293;50.930;3.464;2022-07-01T13:00:32;5.00;;;1.52;;
42682;SDS011;28293;50.930;3.464;2022-07-01T13:02:59;6.00;;;1.75;;
42682;SDS011;28293;50.930;3.464;2022-07-01T13:05:28;7.53;;;1.90;;
42682;SDS011;28293;50.930;3.464;2022-07-01T13:07:55;8.00;;;1.60;;
42682;SDS011;28293;50.930;3.464;2022-07-01T13:10:21;5.53;;;1.58;;
42682;SDS011;28293;50.930;3.464;2022-07-01T13:12:49;6.45;;;1.50;;
42682;SDS011;28293;50.930;3.464;2022-07-01T13:15:16;10.05;;;1.77;;
42682;SDS011;28293;50.930;3.464;2022-07-01T13:17:43;4.68;;;1.10;;
42682;SDS011;28293;50.930;3.464;2022-07-01T13:20:11;8.25;;;1.80;;
42682;SDS011;28293;50.930;3.464;2022-07-01T13:22:38;3.58;;;1.45;;
42682;SDS011;28293;50.930;3.464;2022-07-01T13:25:06;4.80;;;1.30;;
42682;SDS011;28293;50.930;3.464;2022-07-01T13:27:32;3.00;;;1.00;;
42682;SDS011;28293;50.930;3.464;2022-07-01T13:29:58;3.33;;;1.10;;
42682;SDS011;28293;50.930;3.464;2022-07-01T13:32:24;5.20;;;1.52;;
42682;SDS011;28293;50.930;3.464;2022-07-01T13:34:50;5.75;;;1.38;;
42682;SDS011;28293;50.930;3.464;2022-07-01T13:37:16;4.18;;;1.17;;
42682;SDS011;28293;50.930;3.464;2022-07-01T13:39:42;4.38;;;1.30;;
42682;SDS011;28293;50.930;3.464;2022-07-01T13:42:08;4.93;;;1.33;;
42682;SDS011;28293;50.930;3.464;2022-07-01T13:44:33;4.25;;;1.30;;
42682;SDS011;28293;50.930;3.464;2022-07-01T13:47:00;8.13;;;1.52;;
42682;SDS011;28293;50.930;3.464;2022-07-01T13:49:29;6.00;;;1.60;;
42682;SDS011;28293;50.930;3.464;2022-07-01T13:51:56;6.57;;;1.90;;
42682;SDS011;28293;50.930;3.464;2022-07-01T13:54:21;6.18;;;1.50;;
42682;SDS011;28293;50.930;3.464;2022-07-01T13:56:47;5.03;;;1.40;;
42682;SDS011;28293;50.930;3.464;2022-07-01T13:59:13;5.25;;;1.30;;
42682;SDS011;28293;50.930;3.464;2022-07-01T14:01:39;6.45;;;1.67;;
42682;SDS011;28293;50.930;3.464;2022-07-01T14:04:05;7.22;;;1.80;;
42682;SDS011;28293;50.930;3.464;2022-07-01T14:06:31;5.43;;;1.63;;
42682;SDS011;28293;50.930;3.464;2022-07-01T14:08:57;7.25;;;2.17;;
42682;SDS011;28293;50.930;3.464;2022-07-01T14:11:23;5.88;;;1.95;;
42682;SDS011;28293;50.930;3.464;2022-07-01T14:13:48;4.07;;;1.40;;
42682;SDS011;28293;50.930;3.464;2022-07-01T14:16:15;6.78;;;1.80;;
42682;SDS011;28293;50.930;3.464;2022-07-01T14:18:40;6.20;;;1.52;;
42682;SDS011;28293;50.930;3.464;2022-07-01T14:21:06;5.00;;;1.40;;
42682;SDS011;28293;50.930;3.464;2022-07-01T14:23:32;7.20;;;1.50;;
42682;SDS011;28293;50.930;3.464;2022-07-01T14:25:58;5.88;;;1.60;;
42682;SDS011;28293;50.930;3.464;2022-07-01T14:28:25;5.22;;;1.50;;
42682;SDS011;28293;50.930;3.464;2022-07-01T14:30:51;4.00;;;1.10;;
42682;SDS011;28293;50.930;3.464;2022-07-01T14:33:18;6.60;;;1.60;;
42682;SDS011;28293;50.930;3.464;2022-07-01T14:35:46;4.38;;;1.55;;
42682;SDS011;28293;50.930;3.464;2022-07-01T14:38:12;7.13;;;1.48;;
42682;SDS011;28293;50.930;3.464;2022-07-01T14:40:41;5.60;;;1.40;;
42682;SDS011;28293;50.930;3.464;2022-07-01T14:43:07;5.22;;;1.30;;
42682;SDS011;28293;50.930;3.464;2022-07-01T14:45:33;6.80;;;1.45;;
42682;SDS011;28293;50.930;3.464;2022-07-01T14:47:59;6.90;;;1.30;;
42682;SDS011;28293;50.930;3.464;2022-07-01T14:50:25;7.20;;;1.73;;
42682;SDS011;28293;50.930;3.464;2022-07-01T14:52:51;5.10;;;1.52;;
42682;SDS011;28293;50.930;3.464;2022-07-01T14:55:16;7.40;;;1.60;;
42682;SDS011;28293;50.930;3.464;2022-07-01T14:57:42;5.68;;;1.73;;
42682;SDS011;28293;50.930;3.464;2022-07-01T15:00:09;4.47;;;1.48;;
42682;SDS011;28293;50.930;3.464;2022-07-01T15:02:38;5.50;;;1.40;;
42682;SDS011;28293;50.930;3.464;2022-07-01T15:05:04;8.45;;;1.70;;
42682;SDS011;28293;50.930;3.464;2022-07-01T15:07:30;4.97;;;1.38;;